Conway, MI (49722)

10:33 PM EDT on September 04, 2015 (GMT -0400)
Markspm | | Change Station
CLOSE
Current Station
Personal Weather Station
Location: Harbor Springs, MI
Elevation: 745 ft
Nearby Weather Stations

Elev 745 ft 45.43 °N, 84.91 °W | Updated 11 minutes ago

Overcast
Overcast
69.3 °F
Feels Like 69.3 °F
N
0.0
Wind Variable Wind from South
Gusts 1.0 mph

Today
High -- | Low -- °F
--% Chance of Precip.
Yesterday
High -- | Low -- °F
Precip. -- in
7:04 AM 8:11 PM
Waning Gibbous, 53% visible
Pressure 30.07 in
Visibility 10.0 miles
Clouds Overcast 11000 ft
Dew Point 68 °F
Humidity 96%
Rainfall 0.10 in
Snow Depth Not available.
UV 0 out of 12
Pollen 10.10 out of 12
Air Quality Not available.
Flu Activity Not available.
METAR KMGN 050215Z AUTO 06007KT 10SM OVC110 21/19 A3007 RMK AO2 T02150196
Pressure 30.07 in
Visibility 10.0 miles
Clouds Overcast 11000 ft
Dew Point 68 °F
Humidity 96%
Rainfall 0.10 in
Snow Depth Not available.
UV 0 out of 12
Pollen 10.10 out of 12
Air Quality Not available.
Flu Activity Not available.
METAR KMGN 050215Z AUTO 06007KT 10SM OVC110 21/19 A3007 RMK AO2 T02150196
Nowcast | as of 10:00 PM EDT on September 4, 2015

At 11 PM...mostly cloudy. Areas of fog. Scattered showers. Temperature 69. East winds 7 mph. At 1 am...mostly cloudy. Areas of fog. Scattered showers. Temperature 68. East winds 6 mph. At 3 am...mostly cloudy. Areas of fog. Temperature 67. East winds 5 mph. At 5 am...mostly cloudy. Areas of fog. Temperature 67. Light winds.

×

10-Day Weather Forecast

×

Almanac

Astronomy

Sep. 04, 2015 Rise Set
Actual Time
Civil Twilight
Nautical Twilight
Astronomical Twilight
Moon
Length of Visible Light
Length of Day
Tomorrow will be .
, % of the Moon is Illuminated

Today's Extremes

State Highs State Lows

Community

WunderPhotos

Upload Photos

1,852,393 photos uploaded!

WunderBlogs® & News

Nearby

Air Quality

  Air Quality AQ Index Pollutant
Not available.

Snow Depth

Station Depth Elevation

Earthquake Activity

City Distance Mag. Time & Date
Minimum magnitude displayed is 2.5.

Coastal Water Temperatures

Place Temperature

Stations

Nearby Weather Stations

Station Location Temp. Windchill Dew Point Humidity Wind Precip. Elev Updated Type